Time;durP1;ratioP1;P1;durP2;ratioP2;P2;SDS_P1;SDS_P2;PMS_P1;PMS_P2;Temp;Humidity;BMP_temperature;BMP_pressure;BME280_temperature;BME280_humidity;BME280_pressure;Samples;Min_cycle;Max_cycle;Signal;HPM_P1;HPM_P2
2023/05/12 00:00:16;;;;;;;1.25;1.08;;;12.70;82.10;;;;;;5058624;28;20024;-72
2023/05/12 00:02:43;;;;;;;1.30;1.20;;;12.70;82.10;;;;;;5058474;28;20036;-72
2023/05/12 00:05:09;;;;;;;2.38;1.20;;;12.70;82.10;;;;;;5058573;28;20029;-72
2023/05/12 00:07:35;;;;;;;2.00;1.10;;;12.70;81.90;;;;;;5058445;28;20439;-72
2023/05/12 00:10:02;;;;;;;1.08;0.98;;;12.70;81.70;;;;;;5058706;28;20028;-72
2023/05/12 00:12:28;;;;;;;1.00;0.90;;;12.80;81.70;;;;;;5058295;28;20115;-72
2023/05/12 00:14:54;;;;;;;1.90;1.20;;;12.80;81.70;;;;;;5058630;28;20045;-72
2023/05/12 00:17:20;;;;;;;1.52;0.75;;;12.80;82.00;;;;;;5058354;28;20029;-72
2023/05/12 00:19:47;;;;;;;1.45;1.10;;;12.70;81.90;;;;;;5058591;28;20472;-72
2023/05/12 00:22:15;;;;;;;0.80;0.80;;;12.80;81.70;;;;;;5058247;28;20093;-72
2023/05/12 00:24:41;;;;;;;0.82;0.80;;;12.70;81.70;;;;;;5058082;28;20074;-72
2023/05/12 00:27:07;;;;;;;1.02;1.00;;;12.80;81.80;;;;;;5058240;28;20041;-72
2023/05/12 00:29:33;;;;;;;1.38;0.90;;;12.80;81.70;;;;;;5058389;28;20163;-72
2023/05/12 00:32:00;;;;;;;1.92;1.17;;;12.80;81.70;;;;;;5057966;28;20335;-72
2023/05/12 00:34:27;;;;;;;0.90;0.85;;;12.80;81.70;;;;;;5057959;28;20439;-72
2023/05/12 00:36:53;;;;;;;0.70;0.70;;;12.80;81.60;;;;;;5057909;28;20032;-72
2023/05/12 00:39:19;;;;;;;0.75;0.75;;;12.80;81.60;;;;;;5057903;28;20040;-72
2023/05/12 00:41:46;;;;;;;0.75;0.75;;;12.70;81.70;;;;;;5057849;28;20033;-72
2023/05/12 00:44:12;;;;;;;1.17;1.08;;;12.80;81.60;;;;;;5057996;28;20100;-72
2023/05/12 00:46:38;;;;;;;1.33;1.00;;;12.70;81.60;;;;;;5056844;28;20053;-72
2023/05/12 00:49:05;;;;;;;1.02;1.00;;;12.70;81.50;;;;;;5057719;28;20071;-72
2023/05/12 00:51:31;;;;;;;1.67;1.40;;;12.80;81.40;;;;;;5057717;28;20096;-72
2023/05/12 00:53:58;;;;;;;2.20;1.52;;;12.80;81.40;;;;;;5057781;28;20490;-72
2023/05/12 00:56:24;;;;;;;1.75;1.40;;;12.80;81.40;;;;;;5057477;28;20041;-72
2023/05/12 00:58:50;;;;;;;1.65;1.55;;;12.80;81.40;;;;;;5057583;28;20485;-72
2023/05/12 01:01:16;;;;;;;2.88;1.35;;;12.80;81.30;;;;;;5057475;28;20021;-72
2023/05/12 01:03:43;;;;;;;1.50;1.40;;;12.90;81.40;;;;;;5057158;28;20075;-72
2023/05/12 01:06:15;;;;;;;2.38;1.60;;;12.80;81.30;;;;;;5056445;28;20039;-72
2023/05/12 01:08:42;;;;;;;2.20;2.00;;;12.80;81.50;;;;;;5057293;28;20029;-72
2023/05/12 01:11:08;;;;;;;2.58;1.70;;;12.90;81.40;;;;;;5057782;28;20120;-72
2023/05/12 01:13:34;;;;;;;2.05;1.65;;;12.90;81.30;;;;;;5057217;28;20108;-72
2023/05/12 01:16:02;;;;;;;1.58;1.45;;;12.90;81.30;;;;;;5057218;28;20062;-72
2023/05/12 01:18:31;;;;;;;1.40;1.30;;;12.90;81.20;;;;;;5056184;28;20029;-72
2023/05/12 01:20:59;;;;;;;2.17;1.40;;;12.90;81.30;;;;;;5057131;28;20017;-72
2023/05/12 01:23:34;;;;;;;1.27;1.20;;;12.90;81.60;;;;;;5057256;28;20087;-72
2023/05/12 01:26:07;;;;;;;1.60;1.50;;;12.90;81.30;;;;;;5057287;28;20033;-72
2023/05/12 01:28:35;;;;;;;1.08;1.00;;;12.90;81.50;;;;;;5057282;28;20099;-72
2023/05/12 01:31:02;;;;;;;2.05;1.40;;;12.90;81.70;;;;;;5057187;28;20033;-72
2023/05/12 01:33:28;;;;;;;1.45;1.35;;;12.90;81.80;;;;;;5057023;28;20339;-72
2023/05/12 01:35:54;;;;;;;1.20;1.13;;;12.90;81.50;;;;;;5057128;28;20028;-72
2023/05/12 01:38:21;;;;;;;1.40;1.30;;;12.90;82.00;;;;;;5056829;28;20024;-72
2023/05/12 01:40:47;;;;;;;1.83;1.58;;;12.90;81.70;;;;;;5056735;28;20096;-72
2023/05/12 01:43:13;;;;;;;1.90;1.50;;;12.90;81.70;;;;;;5056650;28;20465;-72
2023/05/12 01:45:38;;;;;;;1.70;1.60;;;12.90;81.80;;;;;;5057195;28;20024;-72
2023/05/12 01:48:04;;;;;;;2.42;1.63;;;12.90;81.70;;;;;;5056870;28;20446;-72
2023/05/12 01:50:30;;;;;;;2.42;1.58;;;12.90;82.00;;;;;;5056805;28;20025;-72
2023/05/12 01:52:56;;;;;;;1.83;1.73;;;12.90;81.90;;;;;;5056391;28;20094;-72
2023/05/12 01:55:22;;;;;;;3.05;1.88;;;12.90;82.00;;;;;;5056233;28;20116;-72
2023/05/12 01:57:48;;;;;;;2.55;1.70;;;12.90;82.00;;;;;;5056744;28;20454;-72
2023/05/12 02:00:14;;;;;;;2.10;1.80;;;12.90;82.00;;;;;;5056877;28;20071;-72
2023/05/12 02:02:41;;;;;;;2.40;2.20;;;12.90;81.80;;;;;;5056777;28;20056;-72
2023/05/12 02:05:08;;;;;;;1.80;1.70;;;12.90;81.90;;;;;;5056595;28;20099;-72
2023/05/12 02:07:34;;;;;;;3.20;1.92;;;12.90;81.80;;;;;;5056264;28;20025;-72
2023/05/12 02:10:00;;;;;;;2.38;1.40;;;12.90;81.80;;;;;;5056236;28;20060;-72
2023/05/12 02:12:26;;;;;;;2.38;1.88;;;12.90;81.80;;;;;;5056036;28;20060;-72
2023/05/12 02:14:52;;;;;;;1.40;1.30;;;12.90;82.00;;;;;;5056365;28;20048;-72
2023/05/12 02:17:18;;;;;;;2.42;1.70;;;12.90;82.00;;;;;;5055778;28;20079;-72
2023/05/12 02:19:43;;;;;;;1.73;1.63;;;12.90;81.80;;;;;;5056260;28;20078;-73
2023/05/12 02:22:09;;;;;;;3.35;2.15;;;12.90;81.90;;;;;;5055024;28;20070;-73
2023/05/12 02:24:35;;;;;;;1.60;1.50;;;12.90;81.80;;;;;;5055930;28;20090;-73
2023/05/12 02:27:01;;;;;;;2.75;1.92;;;12.90;81.90;;;;;;5055847;28;20458;-73
2023/05/12 02:29:27;;;;;;;3.00;1.67;;;12.90;81.90;;;;;;5055888;28;20021;-73
2023/05/12 02:31:53;;;;;;;2.97;1.60;;;12.90;81.80;;;;;;5056210;28;20386;-73
2023/05/12 02:34:19;;;;;;;2.22;1.70;;;12.80;81.80;;;;;;5055717;28;20069;-73
2023/05/12 02:36:45;;;;;;;1.60;1.50;;;12.90;81.70;;;;;;5055721;28;20104;-73
2023/05/12 02:39:12;;;;;;;3.63;1.63;;;12.90;81.70;;;;;;5055682;28;20025;-73
2023/05/12 02:41:38;;;;;;;1.73;1.63;;;12.90;81.60;;;;;;5055547;28;20029;-73
2023/05/12 02:44:04;;;;;;;2.20;1.50;;;12.80;81.60;;;;;;5055489;28;20068;-72
2023/05/12 02:46:30;;;;;;;1.40;1.30;;;12.90;81.50;;;;;;5055807;28;20071;-72
2023/05/12 02:48:56;;;;;;;1.40;1.30;;;12.90;81.50;;;;;;5055538;28;20394;-72
2023/05/12 02:51:22;;;;;;;1.90;1.50;;;12.90;81.40;;;;;;5055452;28;20021;-72
2023/05/12 02:53:47;;;;;;;1.60;1.50;;;12.90;81.50;;;;;;5055785;28;20033;-72
2023/05/12 02:56:15;;;;;;;3.08;1.17;;;12.90;81.40;;;;;;5055180;28;20083;-72
2023/05/12 02:58:41;;;;;;;1.40;1.25;;;12.90;81.40;;;;;;5055354;28;20033;-72
2023/05/12 03:01:07;;;;;;;1.88;1.60;;;12.90;81.30;;;;;;5055575;28;20045;-72
2023/05/12 03:03:33;;;;;;;3.45;1.77;;;12.90;81.30;;;;;;5055192;28;20474;-72
2023/05/12 03:05:59;;;;;;;2.88;1.65;;;12.90;81.30;;;;;;5055702;28;20032;-72
2023/05/12 03:08:25;;;;;;;1.80;1.52;;;12.90;81.30;;;;;;5055492;28;20025;-72
2023/05/12 03:10:51;;;;;;;2.10;1.90;;;12.90;81.20;;;;;;5055688;28;20024;-72
2023/05/12 03:13:16;;;;;;;1.80;1.70;;;12.90;81.20;;;;;;5055532;28;20025;-72
2023/05/12 03:15:42;;;;;;;2.25;2.05;;;12.90;81.20;;;;;;5055621;28;20059;-72
2023/05/12 03:18:08;;;;;;;2.08;1.70;;;12.90;81.10;;;;;;5055328;28;20056;-72
2023/05/12 03:20:34;;;;;;;2.63;1.70;;;12.90;81.10;;;;;;5055560;28;20014;-72
2023/05/12 03:23:00;;;;;;;3.03;1.90;;;12.90;81.20;;;;;;5054927;28;20024;-72
2023/05/12 03:25:26;;;;;;;2.10;1.92;;;12.90;81.10;;;;;;5054994;28;20025;-72
2023/05/12 03:27:52;;;;;;;1.50;1.40;;;12.90;81.30;;;;;;5054814;28;20370;-72
2023/05/12 03:30:18;;;;;;;1.60;1.48;;;12.90;81.30;;;;;;5055495;28;20044;-72
2023/05/12 03:32:45;;;;;;;1.70;1.60;;;12.90;81.40;;;;;;5055048;28;20361;-72
2023/05/12 03:35:11;;;;;;;1.42;1.33;;;12.90;81.40;;;;;;5054926;28;20087;-72
2023/05/12 03:37:37;;;;;;;1.92;1.75;;;12.90;81.40;;;;;;5054813;28;20108;-72
2023/05/12 03:40:03;;;;;;;1.92;1.40;;;12.90;81.60;;;;;;5055366;28;20116;-72
2023/05/12 03:42:28;;;;;;;1.67;1.58;;;12.90;81.50;;;;;;5055290;28;20064;-72
2023/05/12 03:44:54;;;;;;;2.22;1.90;;;12.90;81.50;;;;;;5054846;28;20071;-72
2023/05/12 03:47:21;;;;;;;2.30;1.65;;;12.80;81.50;;;;;;5054800;28;20029;-72
2023/05/12 03:49:46;;;;;;;2.80;2.10;;;12.90;81.60;;;;;;5054818;28;20096;-72
2023/05/12 03:52:12;;;;;;;4.28;2.00;;;12.90;81.50;;;;;;5054687;28;20108;-72
2023/05/12 03:54:39;;;;;;;2.58;2.15;;;12.90;81.60;;;;;;5054673;28;20474;-72
2023/05/12 03:57:05;;;;;;;3.50;2.05;;;12.80;81.60;;;;;;5053552;28;20060;-72
2023/05/12 03:59:31;;;;;;;2.00;1.80;;;12.90;81.80;;;;;;5053748;28;20021;-73
2023/05/12 04:01:58;;;;;;;1.73;1.63;;;12.80;81.70;;;;;;5054953;28;20021;-72
2023/05/12 04:04:24;;;;;;;2.05;1.75;;;12.80;82.20;;;;;;5053632;28;20021;-72
2023/05/12 04:06:50;;;;;;;1.67;1.58;;;12.80;81.90;;;;;;5054655;28;20044;-72
2023/05/12 04:09:16;;;;;;;1.77;1.50;;;12.80;82.40;;;;;;5054623;28;20060;-72
2023/05/12 04:11:42;;;;;;;2.00;1.55;;;12.80;82.20;;;;;;5054536;28;20052;-72
2023/05/12 04:14:08;;;;;;;3.63;1.95;;;12.80;82.90;;;;;;5054518;28;20025;-72
2023/05/12 04:16:34;;;;;;;2.67;1.88;;;12.70;82.90;;;;;;5054533;28;20047;-72
2023/05/12 04:19:02;;;;;;;2.50;1.88;;;12.70;82.90;;;;;;5054769;28;20104;-72
2023/05/12 04:21:27;;;;;;;2.13;1.90;;;12.70;82.90;;;;;;5054459;28;20051;-72
2023/05/12 04:23:53;;;;;;;2.22;1.95;;;12.70;82.60;;;;;;5054934;28;20111;-72
2023/05/12 04:26:20;;;;;;;2.03;1.70;;;12.70;82.80;;;;;;5054409;28;20096;-72
2023/05/12 04:28:46;;;;;;;1.98;1.38;;;12.70;82.80;;;;;;5054354;28;20032;-72
2023/05/12 04:31:12;;;;;;;3.05;1.92;;;12.70;82.90;;;;;;5054338;28;20036;-72
2023/05/12 04:33:38;;;;;;;2.55;1.58;;;12.70;83.30;;;;;;5054523;28;20040;-72
2023/05/12 04:36:04;;;;;;;1.90;1.75;;;12.70;83.10;;;;;;5054587;28;20025;-72
2023/05/12 04:38:31;;;;;;;2.47;1.92;;;12.70;83.20;;;;;;5054446;28;20533;-72
2023/05/12 04:40:59;;;;;;;2.35;1.98;;;12.70;83.30;;;;;;5057920;28;20021;-72
2023/05/12 04:43:26;;;;;;;2.08;1.70;;;12.70;83.00;;;;;;5057948;28;20021;-72
2023/05/12 04:45:54;;;;;;;1.92;1.73;;;12.70;83.10;;;;;;5058051;28;20029;-72
2023/05/12 04:48:20;;;;;;;2.10;1.73;;;12.70;83.00;;;;;;5057721;28;20119;-72
2023/05/12 04:50:49;;;;;;;2.83;1.67;;;12.70;83.40;;;;;;5057986;28;20074;-72
2023/05/12 04:53:15;;;;;;;2.00;1.80;;;12.70;83.00;;;;;;5057556;28;20081;-72
2023/05/12 04:55:44;;;;;;;2.30;2.08;;;12.70;82.90;;;;;;5057805;28;20101;-73
2023/05/12 04:58:13;;;;;;;2.25;1.73;;;12.70;82.80;;;;;;5057825;28;20100;-73
2023/05/12 05:00:39;;;;;;;2.55;2.13;;;12.70;82.70;;;;;;5056540;28;20024;-73
2023/05/12 05:03:06;;;;;;;1.92;1.60;;;12.70;82.80;;;;;;5057476;28;20039;-73
2023/05/12 05:05:32;;;;;;;4.80;1.70;;;12.70;83.00;;;;;;5057409;28;20027;-73
2023/05/12 05:07:58;;;;;;;2.20;1.92;;;12.80;83.00;;;;;;5057415;28;20021;-73
2023/05/12 05:10:24;;;;;;;1.85;1.67;;;12.70;82.90;;;;;;5057379;28;20064;-73
2023/05/12 05:12:50;;;;;;;2.13;1.85;;;12.70;83.00;;;;;;5057687;28;20041;-73
2023/05/12 05:15:15;;;;;;;2.50;2.22;;;12.70;83.20;;;;;;5057795;28;20391;-73
2023/05/12 05:17:48;;;;;;;2.25;2.00;;;12.70;83.40;;;;;;5057269;28;20040;-72
2023/05/12 05:20:14;;;;;;;3.15;1.90;;;12.70;83.20;;;;;;5057496;28;20029;-72
2023/05/12 05:22:40;;;;;;;2.53;2.08;;;12.70;83.60;;;;;;5057328;28;20025;-72
2023/05/12 05:25:07;;;;;;;2.85;1.90;;;12.70;83.50;;;;;;5057081;28;20504;-72
2023/05/12 05:27:33;;;;;;;2.13;1.60;;;12.70;83.80;;;;;;5056946;28;20033;-72
2023/05/12 05:29:59;;;;;;;2.30;1.60;;;12.60;83.50;;;;;;5057001;28;20051;-72
2023/05/12 05:32:25;;;;;;;2.08;1.60;;;12.70;83.60;;;;;;5056872;28;20033;-72
2023/05/12 05:34:51;;;;;;;2.97;1.63;;;12.70;83.60;;;;;;5056814;28;20036;-72
2023/05/12 05:37:17;;;;;;;2.22;1.88;;;12.70;83.40;;;;;;5057149;28;20028;-73
2023/05/12 05:39:44;;;;;;;2.83;1.80;;;12.70;83.50;;;;;;5057098;28;20029;-73
2023/05/12 05:42:10;;;;;;;2.47;1.80;;;12.70;83.50;;;;;;5057328;28;20017;-73
2023/05/12 05:44:35;;;;;;;2.42;1.60;;;12.70;83.40;;;;;;5056744;28;20137;-73
2023/05/12 05:47:01;;;;;;;2.00;1.80;;;12.70;83.20;;;;;;5056973;28;20013;-73
2023/05/12 05:49:27;;;;;;;1.70;1.60;;;12.70;83.30;;;;;;5057181;28;20040;-73
2023/05/12 05:51:53;;;;;;;3.13;1.83;;;12.80;83.20;;;;;;5056019;28;20021;-73
2023/05/12 05:54:21;;;;;;;1.70;1.58;;;12.70;83.40;;;;;;5056448;28;20071;-73
2023/05/12 05:56:47;;;;;;;2.25;1.88;;;12.70;83.30;;;;;;5056325;28;20470;-73
2023/05/12 05:59:14;;;;;;;2.40;1.90;;;12.80;83.80;;;;;;5056506;28;20021;-73
2023/05/12 06:01:40;;;;;;;2.78;2.00;;;12.80;83.80;;;;;;5056369;28;20446;-73
2023/05/12 06:04:05;;;;;;;4.78;2.80;;;12.70;83.70;;;;;;5056253;28;20027;-73
2023/05/12 06:06:33;;;;;;;1.98;1.70;;;12.70;83.80;;;;;;5055585;28;20138;-73
2023/05/12 06:08:58;;;;;;;1.73;1.38;;;12.70;83.80;;;;;;5056812;28;20060;-73
2023/05/12 06:11:24;;;;;;;1.50;1.38;;;12.70;83.70;;;;;;5056514;28;20038;-73
2023/05/12 06:13:50;;;;;;;1.70;1.52;;;12.80;83.60;;;;;;5056295;28;20052;-73
2023/05/12 06:16:17;;;;;;;2.50;1.33;;;12.80;83.70;;;;;;5056117;28;20032;-72
2023/05/12 06:18:43;;;;;;;1.40;1.30;;;12.80;83.50;;;;;;5056627;28;20021;-72
2023/05/12 06:21:09;;;;;;;2.95;1.15;;;12.80;83.70;;;;;;5056305;28;20024;-72
2023/05/12 06:23:35;;;;;;;1.75;1.30;;;12.90;83.30;;;;;;5056451;28;20036;-72
2023/05/12 06:26:01;;;;;;;1.23;1.10;;;12.90;83.30;;;;;;5055910;28;20132;-72
2023/05/12 06:28:27;;;;;;;3.67;1.52;;;12.90;83.20;;;;;;5061615;28;20059;-74
2023/05/12 06:30:53;;;;;;;2.53;1.60;;;12.90;83.20;;;;;;5064545;28;20063;-75
2023/05/12 06:33:19;;;;;;;2.20;1.35;;;12.90;83.10;;;;;;5064953;28;20040;-75
2023/05/12 06:35:45;;;;;;;1.67;1.38;;;12.90;83.10;;;;;;5064362;28;20047;-74
2023/05/12 06:38:11;;;;;;;1.77;1.63;;;12.90;83.10;;;;;;5058922;28;20053;-72
2023/05/12 06:40:37;;;;;;;5.53;2.42;;;12.90;83.20;;;;;;5055655;28;20108;-72
2023/05/12 06:43:03;;;;;;;3.35;2.85;;;12.90;84.10;;;;;;5055592;28;20104;-71
2023/05/12 06:45:29;;;;;;;6.43;3.25;;;12.90;83.90;;;;;;5055623;28;20025;-71
2023/05/12 06:47:56;;;;;;;3.47;2.55;;;12.90;83.60;;;;;;5055636;28;20028;-71
2023/05/12 06:50:22;;;;;;;6.13;3.72;;;12.80;83.70;;;;;;5055787;28;20029;-71
2023/05/12 06:52:48;;;;;;;5.47;3.55;;;12.90;83.60;;;;;;5054412;28;20369;-71
2023/05/12 06:55:18;;;;;;;4.50;2.60;;;12.80;83.90;;;;;;5055283;28;20079;-71
2023/05/12 06:57:44;;;;;;;3.67;2.60;;;12.80;84.20;;;;;;5055464;28;20418;-71
2023/05/12 07:00:10;;;;;;;3.42;2.30;;;12.80;84.80;;;;;;5055396;28;20044;-71
2023/05/12 07:02:36;;;;;;;2.10;1.80;;;12.70;84.80;;;;;;5054396;28;20057;-71
2023/05/12 07:05:02;;;;;;;2.78;1.70;;;12.60;85.00;;;;;;5055327;28;20067;-71
2023/05/12 07:07:28;;;;;;;1.98;1.65;;;12.70;85.30;;;;;;5054961;28;20031;-72
2023/05/12 07:09:55;;;;;;;2.88;1.70;;;12.60;84.90;;;;;;5055491;28;20025;-72
2023/05/12 07:12:22;;;;;;;3.65;1.63;;;12.60;85.30;;;;;;5055378;28;20037;-71
2023/05/12 07:14:48;;;;;;;2.67;1.88;;;12.60;85.20;;;;;;5055372;28;20052;-71
2023/05/12 07:17:14;;;;;;;3.38;1.88;;;12.60;85.50;;;;;;5055163;28;20477;-71
2023/05/12 07:19:40;;;;;;;1.52;1.20;;;12.70;85.00;;;;;;5055135;28;20052;-71
2023/05/12 07:22:05;;;;;;;2.90;1.52;;;12.70;85.00;;;;;;5055060;28;20021;-71
2023/05/12 07:24:31;;;;;;;1.75;1.42;;;12.80;84.90;;;;;;5055238;28;20029;-71
2023/05/12 07:26:57;;;;;;;1.67;1.52;;;12.80;84.80;;;;;;5055061;28;20028;-71
2023/05/12 07:29:23;;;;;;;1.42;1.33;;;12.90;84.90;;;;;;5055302;28;20036;-71
2023/05/12 07:31:49;;;;;;;3.13;1.70;;;12.90;84.80;;;;;;5053980;28;20028;-71
2023/05/12 07:34:15;;;;;;;1.55;1.45;;;13.00;84.80;;;;;;5055598;28;20041;-71
2023/05/12 07:36:41;;;;;;;3.63;1.73;;;13.00;84.50;;;;;;5055226;28;20078;-71
2023/05/12 07:39:07;;;;;;;1.95;1.40;;;13.00;84.20;;;;;;5055405;28;20037;-71
2023/05/12 07:41:33;;;;;;;1.20;1.10;;;13.10;84.30;;;;;;5054937;28;20378;-71
2023/05/12 07:44:00;;;;;;;2.45;1.40;;;13.10;84.40;;;;;;5055103;28;20086;-71
2023/05/12 07:46:26;;;;;;;1.75;1.38;;;13.10;84.60;;;;;;5055421;28;20056;-71
2023/05/12 07:48:51;;;;;;;2.75;1.73;;;13.10;84.10;;;;;;5055132;28;20388;-71
2023/05/12 07:51:17;;;;;;;1.70;1.40;;;13.20;84.10;;;;;;5055376;28;20035;-71
2023/05/12 07:53:43;;;;;;;1.60;1.40;;;13.20;84.20;;;;;;5054913;28;20036;-71
2023/05/12 07:56:09;;;;;;;2.22;1.50;;;13.20;83.90;;;;;;5054865;28;20045;-71
2023/05/12 07:58:36;;;;;;;1.70;1.50;;;13.20;83.80;;;;;;5055500;28;20029;-71
2023/05/12 08:01:04;;;;;;;1.92;1.70;;;13.30;83.80;;;;;;5055000;28;20021;-71
2023/05/12 08:03:32;;;;;;;2.47;1.58;;;13.30;83.70;;;;;;5054919;28;20029;-71
2023/05/12 08:05:58;;;;;;;1.58;1.40;;;13.40;83.40;;;;;;5054963;28;20021;-71
2023/05/12 08:08:23;;;;;;;1.65;1.52;;;13.40;83.40;;;;;;5054633;28;20382;-71
2023/05/12 08:10:49;;;;;;;2.03;1.75;;;13.40;83.40;;;;;;5054649;28;20086;-71
2023/05/12 08:13:15;;;;;;;1.95;1.77;;;13.40;83.20;;;;;;5054519;28;20107;-71
2023/05/12 08:15:41;;;;;;;2.28;2.00;;;13.40;83.40;;;;;;5058180;28;20053;-71
2023/05/12 08:18:07;;;;;;;2.45;2.08;;;13.40;83.40;;;;;;5058692;28;20111;-71
2023/05/12 08:20:34;;;;;;;3.63;2.58;;;13.50;83.20;;;;;;5058585;28;20036;-71
2023/05/12 08:23:00;;;;;;;3.50;2.30;;;13.60;83.30;;;;;;5058205;28;20035;-71
2023/05/12 08:25:29;;;;;;;3.38;2.25;;;13.60;83.30;;;;;;5058267;28;20017;-71
2023/05/12 08:27:56;;;;;;;2.40;2.00;;;13.70;83.10;;;;;;5058197;28;20064;-71
2023/05/12 08:30:22;;;;;;;2.22;2.03;;;13.70;82.70;;;;;;5058752;28;20049;-71
2023/05/12 08:32:48;;;;;;;2.17;1.98;;;13.70;82.70;;;;;;5058031;28;20133;-71
2023/05/12 08:35:14;;;;;;;3.58;2.00;;;13.70;82.80;;;;;;5058080;28;20016;-71
2023/05/12 08:37:40;;;;;;;4.75;2.25;;;13.70;82.50;;;;;;5058531;28;20032;-71
2023/05/12 08:40:16;;;;;;;2.45;2.20;;;13.70;82.60;;;;;;5058026;28;20017;-71
2023/05/12 08:42:46;;;;;;;2.75;2.35;;;13.70;82.60;;;;;;5058131;28;20040;-71
2023/05/12 08:45:12;;;;;;;2.60;2.10;;;13.70;82.50;;;;;;5057599;28;20025;-71
2023/05/12 08:47:41;;;;;;;3.20;2.60;;;13.80;82.50;;;;;;5057240;28;20037;-71
2023/05/12 08:50:09;;;;;;;3.40;2.67;;;13.80;82.60;;;;;;5058128;28;20112;-71
2023/05/12 08:52:36;;;;;;;3.78;2.80;;;13.70;82.70;;;;;;5057632;28;20036;-71
2023/05/12 08:55:03;;;;;;;4.32;2.70;;;13.80;82.90;;;;;;5057748;28;20049;-71
2023/05/12 08:57:29;;;;;;;3.28;2.53;;;13.80;82.70;;;;;;5057489;28;20059;-71
2023/05/12 08:59:58;;;;;;;2.83;2.28;;;13.80;82.80;;;;;;5057644;28;20017;-71
2023/05/12 09:02:24;;;;;;;2.88;2.25;;;13.80;83.00;;;;;;5057603;28;20358;-71
2023/05/12 09:04:51;;;;;;;3.78;2.38;;;13.90;83.00;;;;;;5057765;28;20032;-71
2023/05/12 09:07:23;;;;;;;3.22;2.45;;;13.90;82.80;;;;;;5057776;28;20490;-71
2023/05/12 09:09:57;;;;;;;2.90;2.33;;;13.90;83.00;;;;;;5057985;28;20036;-71
2023/05/12 09:12:28;;;;;;;4.70;2.63;;;13.90;82.90;;;;;;5057605;28;20039;-71
2023/05/12 09:15:02;;;;;;;2.55;2.20;;;13.90;82.70;;;;;;5057387;28;20032;-71
2023/05/12 09:17:28;;;;;;;2.72;2.38;;;13.90;82.90;;;;;;5057601;28;20088;-71
2023/05/12 09:19:54;;;;;;;3.00;2.05;;;13.90;82.90;;;;;;5057529;28;20457;-71
2023/05/12 09:22:32;;;;;;;3.10;2.08;;;13.90;82.80;;;;;;5057199;28;20024;-71
2023/05/12 09:24:58;;;;;;;2.55;2.08;;;13.90;82.80;;;;;;5056728;28;20048;-71
2023/05/12 09:27:28;;;;;;;2.25;1.90;;;13.90;82.70;;;;;;5056485;28;20013;-71
2023/05/12 09:29:54;;;;;;;4.40;2.30;;;13.90;82.50;;;;;;5057069;28;20406;-71
2023/05/12 09:32:34;;;;;;;3.13;2.22;;;13.90;82.80;;;;;;5057031;28;20017;-71
2023/05/12 09:35:05;;;;;;;2.97;2.15;;;13.90;82.70;;;;;;5057558;28;20032;-71
2023/05/12 09:37:35;;;;;;;2.90;2.38;;;13.90;82.50;;;;;;5056863;28;20096;-71
2023/05/12 09:40:03;;;;;;;2.88;2.47;;;13.90;82.60;;;;;;5056899;28;20108;-71
2023/05/12 09:42:31;;;;;;;2.28;2.00;;;13.90;82.50;;;;;;5056746;28;20041;-71
2023/05/12 09:45:04;;;;;;;2.72;2.30;;;13.90;82.70;;;;;;5056873;28;20029;-71
2023/05/12 09:47:39;;;;;;;5.18;3.10;;;13.90;82.60;;;;;;5056773;28;20454;-72
2023/05/12 09:50:07;;;;;;;4.10;2.80;;;13.90;83.20;;;;;;5057011;28;20057;-72
2023/05/12 09:52:37;;;;;;;4.15;3.00;;;13.90;83.20;;;;;;5056769;28;20036;-72
2023/05/12 09:55:09;;;;;;;4.63;3.25;;;13.90;83.30;;;;;;5056600;28;20458;-72
2023/05/12 09:57:44;;;;;;;4.53;2.50;;;13.90;83.00;;;;;;5056451;28;20103;-72
2023/05/12 10:00:16;;;;;;;4.45;2.83;;;13.90;83.00;;;;;;5056812;28;20033;-72
2023/05/12 10:02:43;;;;;;;5.25;3.35;;;13.90;83.10;;;;;;5055392;28;20029;-71
2023/05/12 10:05:19;;;;;;;5.25;3.28;;;13.90;83.40;;;;;;5055304;28;20041;-71
2023/05/12 10:07:53;;;;;;;5.22;3.42;;;13.90;83.30;;;;;;5056631;28;20025;-71
2023/05/12 10:10:22;;;;;;;3.90;3.00;;;13.90;83.50;;;;;;5056292;28;20522;-71
2023/05/12 10:12:49;;;;;;;3.50;2.80;;;13.90;83.30;;;;;;5056096;28;20021;-71
2023/05/12 10:15:16;;;;;;;4.25;2.50;;;13.90;83.40;;;;;;5056473;28;20074;-71
2023/05/12 10:17:44;;;;;;;3.75;2.50;;;13.90;82.80;;;;;;5056461;28;20047;-71
2023/05/12 10:20:12;;;;;;;3.22;2.58;;;13.90;82.70;;;;;;5056378;28;20025;-71
2023/05/12 10:22:39;;;;;;;4.53;2.50;;;13.90;82.90;;;;;;5056254;28;20028;-71
2023/05/12 10:25:10;;;;;;;6.05;2.95;;;14.00;82.80;;;;;;5056071;28;20024;-71
2023/05/12 10:27:36;;;;;;;2.90;2.22;;;13.90;83.00;;;;;;5056268;28;20025;-71
2023/05/12 10:30:03;;;;;;;3.53;2.75;;;14.00;83.00;;;;;;5056180;28;20056;-71
2023/05/12 10:32:30;;;;;;;5.55;2.70;;;14.00;82.90;;;;;;5054651;28;20472;-71
2023/05/12 10:35:07;;;;;;;3.90;2.78;;;14.00;83.00;;;;;;5056335;28;20094;-71
2023/05/12 10:37:34;;;;;;;4.75;2.75;;;14.00;82.80;;;;;;5055908;28;20017;-71
2023/05/12 10:40:03;;;;;;;4.05;2.63;;;14.00;82.80;;;;;;5054769;28;20120;-71
2023/05/12 10:42:38;;;;;;;5.07;2.90;;;14.00;82.80;;;;;;5055588;28;20126;-71
2023/05/12 10:45:17;;;;;;;4.18;2.67;;;14.00;82.70;;;;;;5055950;28;20028;-71
2023/05/12 10:47:45;;;;;;;2.88;2.38;;;14.00;82.70;;;;;;5055910;28;20044;-71
2023/05/12 10:50:12;;;;;;;2.85;2.55;;;14.00;82.60;;;;;;5055831;28;20114;-71
2023/05/12 10:52:53;;;;;;;3.47;2.30;;;14.00;82.80;;;;;;5055614;28;20025;-71
2023/05/12 10:55:33;;;;;;;3.13;2.47;;;14.00;83.00;;;;;;5056045;28;20029;-71
2023/05/12 10:58:08;;;;;;;3.15;2.20;;;14.00;82.90;;;;;;5055755;28;20106;-71
2023/05/12 11:00:43;;;;;;;3.22;2.50;;;14.00;82.90;;;;;;5055660;28;20025;-71
2023/05/12 11:03:21;;;;;;;3.55;2.63;;;14.00;83.00;;;;;;5055268;28;20032;-71
2023/05/12 11:05:58;;;;;;;4.55;2.42;;;14.00;83.20;;;;;;5055645;28;20028;-71
2023/05/12 11:08:24;;;;;;;5.90;2.60;;;14.00;83.20;;;;;;5055285;28;20041;-71
2023/05/12 11:10:50;;;;;;;4.22;2.47;;;14.00;83.30;;;;;;5055247;28;20096;-71
2023/05/12 11:13:18;;;;;;;6.22;3.00;;;14.10;83.10;;;;;;5055079;28;20063;-71
2023/05/12 11:15:44;;;;;;;2.33;2.00;;;14.10;82.80;;;;;;5054187;28;20021;-71
2023/05/12 11:18:11;;;;;;;2.15;1.42;;;14.10;82.60;;;;;;5055183;28;20191;-71
2023/05/12 11:20:37;;;;;;;1.13;1.05;;;14.10;82.30;;;;;;5055116;28;20028;-71
2023/05/12 11:23:03;;;;;;;2.88;1.83;;;14.00;82.00;;;;;;5055253;28;20051;-71
2023/05/12 11:25:29;;;;;;;1.83;1.35;;;14.00;81.90;;;;;;5055053;28;20029;-71
2023/05/12 11:27:55;;;;;;;2.15;1.20;;;14.00;81.90;;;;;;5055010;28;20117;-71
2023/05/12 11:30:21;;;;;;;1.35;1.20;;;14.00;81.90;;;;;;5055309;28;20096;-71
2023/05/12 11:32:47;;;;;;;1.30;1.20;;;13.90;81.90;;;;;;5055136;28;20438;-71
2023/05/12 11:35:18;;;;;;;1.42;1.27;;;13.90;82.30;;;;;;5055016;28;20021;-71
2023/05/12 11:37:45;;;;;;;1.60;1.23;;;13.90;82.10;;;;;;5054936;28;20029;-71
2023/05/12 11:40:18;;;;;;;1.75;1.40;;;13.90;82.20;;;;;;5055214;28;20018;-71
2023/05/12 11:42:58;;;;;;;2.10;1.70;;;13.90;82.20;;;;;;5054259;28;20082;-71
2023/05/12 11:45:27;;;;;;;1.80;1.67;;;13.90;82.50;;;;;;5054926;28;20041;-71
2023/05/12 11:48:11;;;;;;;1.70;1.60;;;14.00;82.40;;;;;;5055140;28;20067;-71
2023/05/12 11:50:42;;;;;;;3.60;2.60;;;14.00;82.50;;;;;;5058035;28;20028;-71
2023/05/12 11:53:13;;;;;;;4.20;2.42;;;14.10;83.30;;;;;;5058995;28;20025;-71
2023/05/12 11:55:53;;;;;;;2.85;2.45;;;14.30;83.00;;;;;;5058521;28;20033;-71
2023/05/12 11:58:25;;;;;;;3.45;2.50;;;14.40;83.20;;;;;;5058839;28;20107;-71
2023/05/12 12:00:53;;;;;;;2.47;2.20;;;14.50;82.90;;;;;;5058747;28;20025;-71
2023/05/12 12:03:18;;;;;;;3.22;2.28;;;14.60;83.00;;;;;;5058647;28;20024;-71
2023/05/12 12:05:58;;;;;;;3.03;2.70;;;14.80;82.80;;;;;;5058928;28;20499;-71
2023/05/12 12:08:24;;;;;;;3.83;2.50;;;14.90;82.80;;;;;;5058932;28;20028;-71
2023/05/12 12:10:50;;;;;;;4.10;2.95;;;15.10;82.40;;;;;;5058566;28;20087;-71
2023/05/12 12:13:20;;;;;;;4.18;2.80;;;15.20;82.10;;;;;;5058423;28;20445;-71
2023/05/12 12:15:47;;;;;;;5.10;3.20;;;15.30;81.90;;;;;;5058460;28;20498;-71
2023/05/12 12:18:15;;;;;;;3.83;3.20;;;15.40;81.90;;;;;;5058400;28;20029;-71
2023/05/12 12:20:42;;;;;;;5.40;3.20;;;15.50;81.50;;;;;;5058322;28;20031;-71
2023/05/12 12:23:07;;;;;;;3.47;2.63;;;15.70;81.40;;;;;;5058712;28;20036;-71
2023/05/12 12:25:33;;;;;;;4.20;3.30;;;15.90;80.70;;;;;;5058538;28;20095;-71
2023/05/12 12:28:00;;;;;;;4.45;2.92;;;16.00;80.80;;;;;;5058270;28;20048;-71
2023/05/12 12:30:26;;;;;;;3.42;2.85;;;16.10;80.30;;;;;;5058712;28;20051;-72
2023/05/12 12:32:52;;;;;;;3.55;3.00;;;16.40;80.10;;;;;;5057967;28;20029;-72
2023/05/12 12:35:18;;;;;;;3.95;3.20;;;16.50;79.40;;;;;;5058370;28;20021;-72
2023/05/12 12:37:50;;;;;;;4.00;3.28;;;16.60;79.60;;;;;;5058050;28;20450;-72
2023/05/12 12:40:17;;;;;;;3.03;2.67;;;16.60;79.40;;;;;;5058023;28;20354;-72
2023/05/12 12:42:43;;;;;;;2.88;2.28;;;16.70;78.90;;;;;;5057909;28;20102;-72
2023/05/12 12:45:10;;;;;;;5.82;3.28;;;16.80;78.30;;;;;;5057921;28;20068;-72
2023/05/12 12:47:37;;;;;;;4.15;2.40;;;16.80;77.30;;;;;;5058938;28;20079;-72